Terminal Aerodrome Forecast
Issued by NWS Wilmington, OH

Home | Current Version | Previous Version | Text Only | Print | Product List | Glossary On
Versions: 1 2 3 4 5 6 7 8 9 10 11 12 13 14 15 16 17 18 19 20 21
058
FTUS41 KILN 232340 AAB
TAFDAY
TAF AMD
KDAY 232340Z 2400/2424 34010KT 2SM BR VCSH OVC005
     FM240400 32006KT 3SM -DZ BR OVC003
     FM241200 31008KT 5SM BR OVC007
     FM241700 29010KT P6SM BKN010 OVC020
     FM242100 26006KT P6SM OVC022=

USA.gov is the U.S. government's official web portal to all federal, state and local government web resources and services.